Time;durP1;ratioP1;P1;durP2;ratioP2;P2;SDS_P1;SDS_P2;PMS_P1;PMS_P2;Temp;Humidity;BMP_temperature;BMP_pressure;BME280_temperature;BME280_humidity;BME280_pressure;Samples;Min_cycle;Max_cycle;Signal;HPM_P1;HPM_P2
2023/02/17 00:01:20;;;;;;;5.60;5.00;;;12.00;99.90;;;;;;5132138;27;20418;-69
2023/02/17 00:03:46;;;;;;;7.70;5.70;;;11.90;99.90;;;;;;5132197;27;20409;-69
2023/02/17 00:06:13;;;;;;;9.70;5.67;;;11.90;99.90;;;;;;5112228;27;20414;-69
2023/02/17 00:08:38;;;;;;;10.00;5.20;;;11.90;99.90;;;;;;5111260;28;20434;-69
2023/02/17 00:11:04;;;;;;;10.93;5.77;;;11.90;99.90;;;;;;5123207;28;20516;-69
2023/02/17 00:13:30;;;;;;;7.50;5.23;;;11.90;99.90;;;;;;5130514;27;20199;-69
2023/02/17 00:15:56;;;;;;;6.43;5.30;;;11.90;99.90;;;;;;5131969;28;20405;-69
2023/02/17 00:18:22;;;;;;;8.33;5.50;;;11.90;99.90;;;;;;5118400;28;20279;-69
2023/02/17 00:20:48;;;;;;;7.70;5.53;;;11.90;99.90;;;;;;5111414;28;20165;-69
2023/02/17 00:23:14;;;;;;;5.63;4.77;;;11.90;99.90;;;;;;5111336;28;20497;-69
2023/02/17 00:25:39;;;;;;;7.70;4.83;;;11.90;99.90;;;;;;5110044;28;20509;-69
2023/02/17 00:28:05;;;;;;;6.03;5.07;;;11.90;99.90;;;;;;5110738;28;20197;-69
2023/02/17 00:30:31;;;;;;;7.17;4.60;;;11.90;99.90;;;;;;5111173;28;20177;-70
2023/02/17 00:32:58;;;;;;;7.80;4.80;;;11.90;99.90;;;;;;5111344;28;20410;-69
2023/02/17 00:35:23;;;;;;;6.33;4.93;;;11.80;99.90;;;;;;5111030;28;20204;-70
2023/02/17 00:37:49;;;;;;;6.77;4.67;;;11.80;99.90;;;;;;5109378;28;20474;-69
2023/02/17 00:40:15;;;;;;;8.00;5.20;;;11.80;99.90;;;;;;5119248;27;20175;-70
2023/02/17 00:42:40;;;;;;;6.37;5.37;;;11.80;99.90;;;;;;5116487;27;20177;-69
2023/02/17 00:45:07;;;;;;;8.80;5.47;;;11.70;99.90;;;;;;5115098;28;20210;-70
2023/02/17 00:47:32;;;;;;;8.93;4.80;;;11.70;99.90;;;;;;5116108;28;20734;-70
2023/02/17 00:49:58;;;;;;;6.00;4.87;;;11.70;99.90;;;;;;5117734;28;20448;-70
2023/02/17 00:52:23;;;;;;;6.13;5.30;;;11.70;99.90;;;;;;5118122;28;20168;-70
2023/02/17 00:54:49;;;;;;;7.00;4.53;;;11.70;99.90;;;;;;5117563;28;20207;-70
2023/02/17 00:57:14;;;;;;;6.40;5.17;;;11.70;99.90;;;;;;5116263;28;20164;-70
2023/02/17 00:59:40;;;;;;;5.93;4.40;;;11.70;99.90;;;;;;5131176;27;20192;-70
2023/02/17 01:02:05;;;;;;;8.57;5.50;;;11.70;99.90;;;;;;5145271;27;20232;-70
2023/02/17 01:04:31;;;;;;;5.33;4.20;;;11.70;99.90;;;;;;5133042;27;20229;-70
2023/02/17 01:06:57;;;;;;;6.73;4.97;;;11.70;99.90;;;;;;5117690;28;20165;-69
2023/02/17 01:09:23;;;;;;;6.50;5.40;;;11.60;99.90;;;;;;5116784;28;20346;-69
2023/02/17 01:11:48;;;;;;;6.00;5.40;;;11.60;99.90;;;;;;5118120;28;20172;-70
2023/02/17 01:14:14;;;;;;;6.70;5.57;;;11.60;99.90;;;;;;5117351;28;20536;-69
2023/02/17 01:16:44;;;;;;;7.00;5.43;;;11.60;99.90;;;;;;5117345;28;20172;-69
2023/02/17 01:19:13;;;;;;;6.77;5.03;;;11.60;99.90;;;;;;5116179;28;20431;-70
2023/02/17 01:21:39;;;;;;;7.53;5.57;;;11.60;99.90;;;;;;5117549;27;20406;-69
2023/02/17 01:24:07;;;;;;;7.17;5.83;;;11.60;99.90;;;;;;5116762;28;20418;-70
2023/02/17 01:26:34;;;;;;;6.60;5.20;;;11.70;99.90;;;;;;5117864;28;20405;-70
2023/02/17 01:29:00;;;;;;;8.50;5.63;;;11.70;99.90;;;;;;5117198;28;20422;-70
2023/02/17 01:31:26;;;;;;;3.83;3.47;;;11.70;99.90;;;;;;5117390;28;20411;-70
2023/02/17 01:33:52;;;;;;;6.47;4.67;;;11.70;99.90;;;;;;5117190;28;20196;-70
2023/02/17 01:36:18;;;;;;;6.20;5.47;;;11.70;99.90;;;;;;5117023;28;20402;-70
2023/02/17 01:38:45;;;;;;;11.83;5.00;;;11.70;99.90;;;;;;5115515;28;20828;-69
2023/02/17 01:41:12;;;;;;;6.60;4.40;;;11.70;99.90;;;;;;5117535;27;20421;-70
2023/02/17 01:43:38;;;;;;;7.93;4.90;;;11.70;99.90;;;;;;5117267;28;20411;-70
2023/02/17 01:46:06;;;;;;;5.43;4.43;;;11.70;99.90;;;;;;5117060;28;20407;-70
2023/02/17 01:48:41;;;;;;;5.60;4.90;;;11.70;99.90;;;;;;5116824;28;20447;-70
2023/02/17 01:51:22;;;;;;;4.57;4.17;;;11.70;99.90;;;;;;5117136;28;20391;-70
2023/02/17 01:53:53;;;;;;;6.40;5.00;;;11.70;99.90;;;;;;5116841;28;20445;-70
2023/02/17 01:56:18;;;;;;;6.23;5.47;;;11.70;99.90;;;;;;5116698;28;20469;-69
2023/02/17 01:58:49;;;;;;;5.30;4.80;;;11.80;99.90;;;;;;5116168;28;20916;-69
2023/02/17 02:01:15;;;;;;;6.70;4.60;;;11.80;99.90;;;;;;5116174;28;20730;-71
2023/02/17 02:03:42;;;;;;;9.73;5.20;;;11.70;99.90;;;;;;5116360;28;20485;-70
2023/02/17 02:06:14;;;;;;;7.67;4.70;;;11.70;99.90;;;;;;5116522;28;20838;-70
2023/02/17 02:09:01;;;;;;;6.33;5.60;;;11.80;99.90;;;;;;5116083;28;20418;-69
2023/02/17 02:11:27;;;;;;;7.73;6.00;;;11.70;99.90;;;;;;5134039;27;20411;-70
2023/02/17 02:13:53;;;;;;;8.10;5.40;;;11.80;99.90;;;;;;5143001;27;20450;-70
2023/02/17 02:16:41;;;;;;;5.77;4.40;;;11.80;99.90;;;;;;5137137;27;20529;-70
2023/02/17 02:19:43;;;;;;;9.17;4.97;;;11.90;99.90;;;;;;5135420;27;20512;-70
2023/02/17 02:22:42;;;;;;;5.50;4.43;;;11.80;99.90;;;;;;5137519;27;20457;-70
2023/02/17 02:25:16;;;;;;;6.40;5.23;;;11.80;99.90;;;;;;5137132;27;20426;-69
2023/02/17 02:27:44;;;;;;;7.33;5.60;;;11.80;99.90;;;;;;5136272;27;20425;-69
2023/02/17 02:30:34;;;;;;;8.30;5.97;;;11.80;99.90;;;;;;5133785;27;20409;-69
2023/02/17 02:33:23;;;;;;;9.50;5.57;;;11.80;99.90;;;;;;5132528;27;20421;-69
2023/02/17 02:36:15;;;;;;;8.30;4.77;;;11.70;99.90;;;;;;5133426;27;20552;-70
2023/02/17 02:39:09;;;;;;;11.57;5.90;;;11.80;99.90;;;;;;5132986;27;20994;-70
2023/02/17 02:41:42;;;;;;;6.20;5.47;;;11.70;99.90;;;;;;5133286;27;20447;-70
2023/02/17 02:44:11;;;;;;;9.80;5.10;;;11.60;99.90;;;;;;5133551;27;20394;-70
2023/02/17 02:46:37;;;;;;;7.70;5.90;;;11.60;99.90;;;;;;5133527;27;20394;-70
2023/02/17 02:49:03;;;;;;;7.10;5.10;;;11.60;99.90;;;;;;5133043;27;20939;-70
2023/02/17 02:51:55;;;;;;;7.10;5.70;;;11.60;99.90;;;;;;5133294;27;20177;-70
2023/02/17 02:54:26;;;;;;;6.23;5.60;;;11.60;99.90;;;;;;5133285;27;20459;-70
2023/02/17 02:57:18;;;;;;;5.50;4.90;;;11.50;99.90;;;;;;5135157;27;20477;-69
2023/02/17 03:00:04;;;;;;;7.77;5.60;;;11.50;99.90;;;;;;5136073;27;20426;-70
2023/02/17 03:02:38;;;;;;;7.00;5.30;;;11.50;99.90;;;;;;5136723;27;20417;-70
2023/02/17 03:05:26;;;;;;;5.87;5.13;;;11.50;99.90;;;;;;5124323;27;20470;-69
2023/02/17 03:07:57;;;;;;;7.07;5.07;;;11.50;99.90;;;;;;5113961;28;20438;-69
2023/02/17 03:10:23;;;;;;;9.00;5.53;;;11.50;99.90;;;;;;5131276;27;20422;-70
2023/02/17 03:12:49;;;;;;;5.37;4.83;;;11.50;99.90;;;;;;5132885;27;20756;-70
2023/02/17 03:15:32;;;;;;;7.57;5.70;;;11.50;99.90;;;;;;5132824;27;20203;-70
2023/02/17 03:17:59;;;;;;;7.90;5.40;;;11.50;99.90;;;;;;5132527;27;20669;-70
2023/02/17 03:20:28;;;;;;;10.87;5.20;;;11.60;99.90;;;;;;5132803;27;21042;-70
2023/02/17 03:22:54;;;;;;;6.57;5.00;;;11.70;99.90;;;;;;5139430;27;20400;-70
2023/02/17 03:25:20;;;;;;;9.20;5.80;;;11.60;99.90;;;;;;5138773;27;20493;-70
2023/02/17 03:27:45;;;;;;;9.57;5.50;;;11.70;99.90;;;;;;5132223;27;20195;-70
2023/02/17 03:30:11;;;;;;;5.47;4.60;;;11.70;99.90;;;;;;5132602;27;20168;-70
2023/02/17 03:32:37;;;;;;;7.17;5.60;;;11.60;99.90;;;;;;5132593;27;20178;-70
2023/02/17 03:35:03;;;;;;;6.23;4.60;;;11.70;99.90;;;;;;5132484;27;20543;-70
2023/02/17 03:37:28;;;;;;;6.70;5.33;;;11.60;99.90;;;;;;5132119;27;20171;-70
2023/02/17 03:39:54;;;;;;;5.93;5.33;;;11.70;99.90;;;;;;5114626;27;20572;-70
2023/02/17 03:42:19;;;;;;;7.97;5.70;;;11.70;99.90;;;;;;5131649;27;20186;-70
2023/02/17 03:44:45;;;;;;;6.20;5.33;;;11.70;99.90;;;;;;5130937;27;20168;-70
2023/02/17 03:47:10;;;;;;;6.23;5.00;;;11.70;99.90;;;;;;5131952;27;20169;-70
2023/02/17 03:49:36;;;;;;;5.70;5.10;;;11.70;99.90;;;;;;5132336;27;20192;-70
2023/02/17 03:52:02;;;;;;;4.83;4.10;;;11.70;99.90;;;;;;5132272;27;20187;-70
2023/02/17 03:54:27;;;;;;;5.87;5.23;;;11.70;99.90;;;;;;5132075;27;20202;-70
2023/02/17 03:56:53;;;;;;;7.00;5.17;;;11.70;99.90;;;;;;5131966;27;20168;-70
2023/02/17 03:59:18;;;;;;;5.60;5.10;;;11.70;99.90;;;;;;5132085;27;20188;-70
2023/02/17 04:01:44;;;;;;;8.30;5.93;;;11.70;99.90;;;;;;5132203;27;20511;-69
2023/02/17 04:04:09;;;;;;;8.87;5.47;;;11.70;99.90;;;;;;5129482;27;20626;-70
2023/02/17 04:06:35;;;;;;;8.00;5.03;;;11.80;99.90;;;;;;5111596;28;20184;-70
2023/02/17 04:09:01;;;;;;;20.03;10.70;;;11.80;99.90;;;;;;5122386;27;20661;-70
2023/02/17 04:11:26;;;;;;;7.90;5.83;;;11.80;99.90;;;;;;5132158;27;20168;-70
2023/02/17 04:13:52;;;;;;;6.23;5.10;;;11.80;99.90;;;;;;5131913;27;20196;-70
2023/02/17 04:16:18;;;;;;;5.13;4.73;;;11.80;99.90;;;;;;5131824;27;20689;-70
2023/02/17 04:18:43;;;;;;;5.00;4.50;;;11.80;99.90;;;;;;5131598;27;20194;-70
2023/02/17 04:21:09;;;;;;;6.33;4.80;;;11.80;99.90;;;;;;5131987;28;20827;-70
2023/02/17 04:23:37;;;;;;;7.23;5.27;;;11.80;99.90;;;;;;5131930;27;20171;-70
2023/02/17 04:26:04;;;;;;;5.03;4.33;;;11.80;99.90;;;;;;5131943;28;20167;-70
2023/02/17 04:28:30;;;;;;;5.77;4.73;;;11.80;99.90;;;;;;5138853;27;20416;-70
2023/02/17 04:30:57;;;;;;;6.60;4.63;;;11.70;99.90;;;;;;5137115;27;20406;-70
2023/02/17 04:33:23;;;;;;;5.13;4.20;;;11.80;99.90;;;;;;5131833;27;20663;-70
2023/02/17 04:35:48;;;;;;;6.57;5.47;;;11.80;99.90;;;;;;5130682;28;20596;-70
2023/02/17 04:38:14;;;;;;;7.43;4.93;;;11.90;99.90;;;;;;5129068;27;20425;-70
2023/02/17 04:40:40;;;;;;;6.60;4.40;;;11.80;99.90;;;;;;5130259;27;20176;-69
2023/02/17 04:43:07;;;;;;;7.13;4.87;;;11.80;99.90;;;;;;5131724;27;20164;-69
2023/02/17 04:45:34;;;;;;;5.77;4.43;;;11.90;99.90;;;;;;5132143;27;20401;-69
2023/02/17 04:47:59;;;;;;;6.70;4.87;;;11.90;99.90;;;;;;5134621;27;20484;-70
2023/02/17 04:50:25;;;;;;;7.00;4.40;;;11.80;99.90;;;;;;5133180;27;20496;-70
2023/02/17 04:52:50;;;;;;;5.97;4.20;;;11.80;99.90;;;;;;5131614;28;20264;-70
2023/02/17 04:55:16;;;;;;;7.27;4.53;;;11.80;99.90;;;;;;5131444;27;20192;-70
2023/02/17 04:57:42;;;;;;;6.00;5.07;;;11.80;99.90;;;;;;5131323;28;20188;-70
2023/02/17 05:00:08;;;;;;;5.07;4.40;;;11.80;99.90;;;;;;5130356;28;20229;-70
2023/02/17 05:02:34;;;;;;;10.77;4.97;;;11.80;99.90;;;;;;5132286;27;20171;-70
2023/02/17 05:04:59;;;;;;;6.03;4.57;;;11.80;99.90;;;;;;5124126;27;20413;-70
2023/02/17 05:07:25;;;;;;;5.47;4.30;;;11.80;99.90;;;;;;5116700;28;20176;-69
2023/02/17 05:09:50;;;;;;;5.80;4.80;;;11.70;99.90;;;;;;5133654;28;20200;-70
2023/02/17 05:12:16;;;;;;;8.80;4.87;;;11.80;99.90;;;;;;5132153;28;20161;-69
2023/02/17 05:14:41;;;;;;;5.47;4.77;;;11.80;99.90;;;;;;5130362;27;20200;-69
2023/02/17 05:17:07;;;;;;;4.57;4.03;;;11.80;99.90;;;;;;5113587;28;20655;-69
2023/02/17 05:19:32;;;;;;;6.47;4.90;;;11.80;99.90;;;;;;5112727;28;20181;-70
2023/02/17 05:21:58;;;;;;;19.23;13.43;;;11.80;99.90;;;;;;5110839;28;20738;-70
2023/02/17 05:24:23;;;;;;;5.10;4.60;;;11.80;99.90;;;;;;5110832;28;20507;-70
2023/02/17 05:26:49;;;;;;;6.77;5.40;;;11.80;99.90;;;;;;5110708;28;20168;-70
2023/02/17 05:29:14;;;;;;;6.93;4.70;;;11.80;99.90;;;;;;5114204;28;20331;-70
2023/02/17 05:31:40;;;;;;;7.00;4.60;;;11.90;99.90;;;;;;5115257;28;20635;-70
2023/02/17 05:34:05;;;;;;;8.27;6.10;;;11.80;99.90;;;;;;5114916;28;20674;-70
2023/02/17 05:36:31;;;;;;;6.53;4.10;;;11.90;99.90;;;;;;5125167;27;20641;-70
2023/02/17 05:38:56;;;;;;;6.50;4.50;;;11.80;99.90;;;;;;5134742;27;20311;-70
2023/02/17 05:41:22;;;;;;;6.87;4.10;;;11.80;99.90;;;;;;5147269;27;20164;-70
2023/02/17 05:43:47;;;;;;;4.90;4.20;;;11.90;99.90;;;;;;5135026;27;20682;-70
2023/02/17 05:46:13;;;;;;;5.97;4.33;;;11.90;99.90;;;;;;5134819;27;20191;-70
2023/02/17 05:48:39;;;;;;;6.70;4.87;;;11.90;99.90;;;;;;5134564;27;20184;-70
2023/02/17 05:51:05;;;;;;;7.80;4.50;;;11.90;99.90;;;;;;5134714;27;20402;-70
2023/02/17 05:53:31;;;;;;;5.57;4.90;;;11.90;99.90;;;;;;5134781;27;20179;-70
2023/02/17 05:55:56;;;;;;;7.33;4.40;;;12.00;99.90;;;;;;5135351;27;20409;-70
2023/02/17 05:58:22;;;;;;;8.07;4.67;;;12.00;99.90;;;;;;5138030;27;20184;-69
2023/02/17 06:00:48;;;;;;;5.90;4.80;;;11.90;99.90;;;;;;5137108;27;20176;-70
2023/02/17 06:03:14;;;;;;;7.87;4.80;;;12.00;99.90;;;;;;5139102;27;20408;-70
2023/02/17 06:05:39;;;;;;;4.20;3.80;;;11.90;99.90;;;;;;5122758;27;20879;-70
2023/02/17 06:08:05;;;;;;;5.97;4.97;;;12.00;99.90;;;;;;5114249;28;20204;-70
2023/02/17 06:10:31;;;;;;;6.07;3.30;;;12.00;99.90;;;;;;5114035;28;20226;-70
2023/02/17 06:12:56;;;;;;;6.00;4.07;;;12.00;99.90;;;;;;5114360;28;20195;-70
2023/02/17 06:15:22;;;;;;;4.20;3.90;;;12.00;99.90;;;;;;5114169;28;20203;-70
2023/02/17 06:17:48;;;;;;;4.03;3.67;;;12.00;99.90;;;;;;5119132;27;20227;-70
2023/02/17 06:20:13;;;;;;;5.17;3.60;;;12.00;99.90;;;;;;5134807;27;20195;-70
2023/02/17 06:22:40;;;;;;;4.20;3.53;;;12.00;99.90;;;;;;5136465;27;20175;-70
2023/02/17 06:25:06;;;;;;;6.13;3.97;;;12.00;99.90;;;;;;5133610;27;20266;-70
2023/02/17 06:27:31;;;;;;;6.03;4.00;;;12.00;99.90;;;;;;5134327;27;20488;-70
2023/02/17 06:29:57;;;;;;;3.90;3.50;;;12.00;99.90;;;;;;5132648;27;20175;-70
2023/02/17 06:32:22;;;;;;;6.83;3.87;;;12.10;99.90;;;;;;5135533;27;20202;-69
2023/02/17 06:34:48;;;;;;;8.40;4.30;;;12.10;99.90;;;;;;5137289;27;20195;-69
2023/02/17 06:37:13;;;;;;;5.03;3.73;;;12.10;99.90;;;;;;5136196;27;20164;-70
2023/02/17 06:39:39;;;;;;;5.77;4.00;;;12.10;99.90;;;;;;5136762;27;20215;-70
2023/02/17 06:42:04;;;;;;;6.20;4.40;;;12.00;99.90;;;;;;5137085;27;20163;-70
2023/02/17 06:44:30;;;;;;;7.33;4.67;;;12.10;99.90;;;;;;5136872;27;20176;-70
2023/02/17 06:46:56;;;;;;;5.23;4.30;;;12.10;99.90;;;;;;5137450;27;20172;-69
2023/02/17 06:49:22;;;;;;;5.60;4.57;;;12.10;99.90;;;;;;5146870;27;20192;-70
2023/02/17 06:51:47;;;;;;;11.60;4.10;;;12.10;99.90;;;;;;5134848;27;20193;-70
2023/02/17 06:54:13;;;;;;;7.20;4.77;;;12.10;99.90;;;;;;5134076;27;20328;-71
2023/02/17 06:56:38;;;;;;;6.03;5.10;;;12.10;99.90;;;;;;5134182;27;20165;-70
2023/02/17 06:59:04;;;;;;;4.80;3.93;;;12.20;99.90;;;;;;5133771;27;20184;-70
2023/02/17 07:01:29;;;;;;;9.83;4.20;;;12.20;99.90;;;;;;5132050;27;20176;-70
2023/02/17 07:03:55;;;;;;;5.73;4.27;;;12.20;99.90;;;;;;5133396;27;20681;-70
2023/02/17 07:06:22;;;;;;;4.80;3.80;;;12.20;99.90;;;;;;5113186;28;20192;-69
2023/02/17 07:08:48;;;;;;;6.20;4.70;;;12.20;99.90;;;;;;5113007;28;20415;-69
2023/02/17 07:11:15;;;;;;;4.70;4.30;;;12.30;99.90;;;;;;5113231;28;20402;-70
2023/02/17 07:13:41;;;;;;;4.33;3.93;;;12.20;99.90;;;;;;5113060;28;20861;-69
2023/02/17 07:16:08;;;;;;;8.43;4.43;;;12.20;99.90;;;;;;5113214;28;20410;-69
2023/02/17 07:18:34;;;;;;;5.70;3.63;;;12.20;99.90;;;;;;5112722;28;20414;-70
2023/02/17 07:20:59;;;;;;;5.30;4.00;;;12.30;99.90;;;;;;5113020;28;20387;-70
2023/02/17 07:23:25;;;;;;;8.60;4.27;;;12.20;99.90;;;;;;5112585;28;20168;-70
2023/02/17 07:25:51;;;;;;;3.87;3.47;;;12.30;99.90;;;;;;5112454;28;20169;-70
2023/02/17 07:28:16;;;;;;;7.73;4.30;;;12.30;99.90;;;;;;5111768;28;20414;-70
2023/02/17 07:30:42;;;;;;;5.90;3.73;;;12.30;99.90;;;;;;5119844;27;20639;-70
2023/02/17 07:33:10;;;;;;;4.23;3.80;;;12.40;99.90;;;;;;5112887;28;20168;-70
2023/02/17 07:35:42;;;;;;;4.30;3.87;;;12.40;99.90;;;;;;5112735;28;20438;-70
2023/02/17 07:38:08;;;;;;;6.53;4.17;;;12.40;99.90;;;;;;5114246;28;20423;-70
2023/02/17 07:40:34;;;;;;;5.33;4.30;;;12.40;99.90;;;;;;5115982;28;20406;-70
2023/02/17 07:42:59;;;;;;;5.03;4.47;;;12.50;99.90;;;;;;5114596;28;20406;-70
2023/02/17 07:45:25;;;;;;;3.67;3.37;;;12.60;99.90;;;;;;5112360;28;20572;-70
2023/02/17 07:47:50;;;;;;;4.73;3.97;;;12.50;99.90;;;;;;5112467;28;20189;-70
2023/02/17 07:50:16;;;;;;;8.13;3.97;;;12.60;99.90;;;;;;5111614;28;20230;-70
2023/02/17 07:52:41;;;;;;;6.17;3.80;;;12.60;99.90;;;;;;5123842;27;20708;-70
2023/02/17 07:55:07;;;;;;;4.73;3.33;;;12.60;99.90;;;;;;5133080;27;20695;-70
2023/02/17 07:57:32;;;;;;;5.10;4.03;;;12.60;99.90;;;;;;5132669;27;20164;-70
2023/02/17 07:59:58;;;;;;;4.10;3.20;;;12.70;99.90;;;;;;5138616;27;20653;-69
2023/02/17 08:02:23;;;;;;;3.40;3.10;;;12.70;99.90;;;;;;5116567;27;20273;-70
2023/02/17 08:04:50;;;;;;;4.77;3.80;;;12.70;99.90;;;;;;5120419;27;20179;-70
2023/02/17 08:07:16;;;;;;;4.97;4.30;;;12.80;99.90;;;;;;5132686;27;20607;-70
2023/02/17 08:15:10;;;;;;;4.50;3.80;;;12.80;99.90;;;;;;5132765;27;20822;-69
2023/02/17 08:17:36;;;;;;;3.70;3.40;;;12.80;99.90;;;;;;5132362;27;20402;-70
2023/02/17 08:20:02;;;;;;;4.30;3.57;;;12.80;99.90;;;;;;5132908;28;20404;-70
2023/02/17 08:22:28;;;;;;;4.20;3.80;;;12.90;99.90;;;;;;5132751;27;20160;-70
2023/02/17 08:24:53;;;;;;;3.83;3.53;;;12.90;99.90;;;;;;5132720;28;20435;-70
2023/02/17 08:27:19;;;;;;;4.10;2.90;;;13.00;99.90;;;;;;5132471;27;20629;-70
2023/02/17 08:29:45;;;;;;;10.37;4.03;;;13.10;99.90;;;;;;5125984;28;20248;-70
2023/02/17 08:32:12;;;;;;;5.97;4.13;;;13.20;99.90;;;;;;5112258;28;20222;-70
2023/02/17 08:34:37;;;;;;;5.00;3.60;;;13.20;99.90;;;;;;5112031;28;20479;-70
2023/02/17 08:37:05;;;;;;;5.53;3.53;;;13.20;99.90;;;;;;5111610;28;20490;-70
2023/02/17 08:39:32;;;;;;;3.50;3.20;;;13.20;99.90;;;;;;5111766;28;20187;-70
2023/02/17 08:41:57;;;;;;;4.30;3.17;;;13.20;99.90;;;;;;5111819;28;20399;-70
2023/02/17 08:44:23;;;;;;;3.80;3.20;;;13.30;99.90;;;;;;5111379;28;20409;-70
2023/02/17 08:46:50;;;;;;;6.40;3.40;;;13.30;99.90;;;;;;5113349;27;20171;-70
2023/02/17 08:49:21;;;;;;;3.77;3.47;;;13.40;99.90;;;;;;5122785;28;20183;-70
2023/02/17 08:51:48;;;;;;;3.33;3.00;;;13.40;99.90;;;;;;5122041;27;20519;-70
2023/02/17 08:54:14;;;;;;;3.60;3.30;;;13.40;99.90;;;;;;5129393;27;20521;-70
2023/02/17 08:56:41;;;;;;;3.97;3.40;;;13.40;99.90;;;;;;5131100;27;20410;-69
2023/02/17 08:59:08;;;;;;;3.37;3.00;;;13.50;99.90;;;;;;5130677;27;20433;-69
2023/02/17 09:01:34;;;;;;;3.50;3.13;;;13.60;99.90;;;;;;5131222;27;20481;-70
2023/02/17 09:04:01;;;;;;;3.20;2.90;;;13.70;99.90;;;;;;5134113;27;20910;-70
2023/02/17 09:06:41;;;;;;;4.53;2.67;;;13.80;99.90;;;;;;5140175;27;20466;-70
2023/02/17 09:09:09;;;;;;;3.00;2.60;;;14.00;99.90;;;;;;5155435;27;20436;-70
2023/02/17 09:11:34;;;;;;;4.80;3.17;;;14.10;99.90;;;;;;5156972;27;20404;-70
2023/02/17 09:14:01;;;;;;;4.20;3.10;;;14.20;99.90;;;;;;5156756;27;20483;-70
2023/02/17 09:16:26;;;;;;;2.87;2.67;;;14.30;99.90;;;;;;5156908;27;20242;-70
2023/02/17 09:18:53;;;;;;;5.17;2.70;;;14.30;99.90;;;;;;5156538;27;20866;-69
2023/02/17 09:21:19;;;;;;;2.83;2.53;;;14.40;99.90;;;;;;5156838;27;20250;-70
2023/02/17 09:23:46;;;;;;;2.87;2.43;;;14.60;99.90;;;;;;5156810;27;20389;-70
2023/02/17 09:26:14;;;;;;;3.30;1.87;;;14.70;99.90;;;;;;5156733;27;20389;-70
2023/02/17 09:28:40;;;;;;;3.00;2.73;;;14.90;99.90;;;;;;5152242;27;20472;-70
2023/02/17 09:31:15;;;;;;;4.50;2.80;;;15.10;99.90;;;;;;5124466;27;20394;-70
2023/02/17 09:33:42;;;;;;;3.63;1.90;;;15.40;99.90;;;;;;5115251;28;20485;-70
2023/02/17 09:36:09;;;;;;;4.63;2.67;;;15.60;99.90;;;;;;5115304;28;20391;-70
2023/02/17 09:38:38;;;;;;;3.50;3.17;;;15.90;99.90;;;;;;5114720;28;20425;-70
2023/02/17 09:41:19;;;;;;;5.73;2.90;;;16.20;99.90;;;;;;5115191;27;20410;-70
2023/02/17 09:43:46;;;;;;;3.53;2.20;;;16.10;99.90;;;;;;5115113;28;20398;-70
2023/02/17 09:46:27;;;;;;;4.47;2.90;;;16.20;99.90;;;;;;5115218;28;20943;-70
2023/02/17 09:49:14;;;;;;;4.70;2.40;;;16.40;99.90;;;;;;5114587;28;20764;-70
2023/02/17 09:51:52;;;;;;;2.50;2.30;;;16.50;99.90;;;;;;5123985;27;20422;-70
2023/02/17 09:54:28;;;;;;;2.27;1.80;;;16.60;99.90;;;;;;5123980;27;20450;-70
2023/02/17 09:56:55;;;;;;;7.73;2.50;;;16.80;99.90;;;;;;5123212;27;20398;-70
2023/02/17 09:59:44;;;;;;;6.43;2.00;;;17.10;99.90;;;;;;5124633;27;20422;-70
2023/02/17 10:02:25;;;;;;;3.10;2.80;;;17.50;99.90;;;;;;5125417;27;20395;-70
2023/02/17 10:04:52;;;;;;;2.77;2.47;;;17.60;99.90;;;;;;5122843;27;20401;-70
2023/02/17 10:07:33;;;;;;;2.57;2.30;;;17.80;99.90;;;;;;5123462;27;20799;-70
2023/02/17 10:10:07;;;;;;;3.13;2.00;;;18.40;99.90;;;;;;5120050;27;20401;-70
2023/02/17 10:12:40;;;;;;;5.07;2.10;;;18.80;99.90;;;;;;5114421;28;20426;-68
2023/02/17 10:15:16;;;;;;;2.60;2.30;;;19.10;99.90;;;;;;5113938;28;20960;-69
2023/02/17 10:18:06;;;;;;;3.67;2.40;;;19.50;99.90;;;;;;5143107;27;20476;-69
2023/02/17 10:21:06;;;;;;;5.30;2.20;;;20.10;99.90;;;;;;5133750;27;20419;-69
2023/02/17 10:23:33;;;;;;;2.50;2.23;;;20.30;99.90;;;;;;5104216;27;20423;-69
2023/02/17 10:26:11;;;;;;;2.10;1.90;;;20.50;99.90;;;;;;5133130;27;20424;-69
2023/02/17 10:28:49;;;;;;;2.97;1.80;;;20.80;99.90;;;;;;5134365;27;20418;-69
2023/02/17 10:31:44;;;;;;;2.03;1.67;;;20.70;99.90;;;;;;5133501;27;20558;-69
2023/02/17 10:34:13;;;;;;;2.60;2.40;;;20.80;99.90;;;;;;5095811;27;20446;-69
2023/02/17 10:36:57;;;;;;;2.50;2.30;;;21.80;99.90;;;;;;5134530;27;20401;-69
2023/02/17 10:39:41;;;;;;;2.27;2.07;;;22.00;99.90;;;;;;5134495;27;20405;-69
2023/02/17 10:42:23;;;;;;;3.17;2.17;;;22.10;99.90;;;;;;5134561;27;20394;-69
2023/02/17 10:44:51;;;;;;;1.67;1.37;;;23.00;99.90;;;;;;5134421;27;20455;-69
2023/02/17 10:47:19;;;;;;;5.83;2.20;;;23.20;98.40;;;;;;5132788;27;20487;-69
2023/02/17 10:49:50;;;;;;;2.00;1.73;;;22.90;97.30;;;;;;5134128;27;20861;-69
2023/02/17 10:52:22;;;;;;;5.20;1.77;;;22.30;98.00;;;;;;5134293;27;20433;-69
2023/02/17 10:54:54;;;;;;;2.47;1.57;;;21.60;98.60;;;;;;5133314;27;20438;-69
2023/02/17 10:57:22;;;;;;;3.43;2.07;;;21.40;99.90;;;;;;5133940;27;20397;-69
2023/02/17 10:59:48;;;;;;;2.33;2.13;;;21.10;99.90;;;;;;5134019;27;20752;-69
2023/02/17 11:02:17;;;;;;;2.60;1.97;;;20.70;99.90;;;;;;5134067;27;20406;-70
2023/02/17 11:04:45;;;;;;;1.80;1.40;;;20.20;99.90;;;;;;5126720;27;20851;-69
2023/02/17 11:07:12;;;;;;;7.83;1.83;;;19.70;99.90;;;;;;5113244;28;20403;-69
2023/02/17 11:09:45;;;;;;;1.37;1.27;;;19.80;99.90;;;;;;5113332;28;20509;-70
2023/02/17 11:12:26;;;;;;;6.70;1.40;;;20.10;99.90;;;;;;5113360;28;20403;-70
2023/02/17 11:14:54;;;;;;;2.43;1.57;;;20.00;99.90;;;;;;5113124;28;20450;-70
2023/02/17 11:17:33;;;;;;;1.87;1.40;;;19.70;99.90;;;;;;5112940;28;20391;-70
2023/02/17 11:20:05;;;;;;;2.90;1.70;;;19.70;99.90;;;;;;5111949;28;20414;-70
2023/02/17 11:22:39;;;;;;;2.03;1.30;;;19.20;99.90;;;;;;5111764;28;20413;-70
2023/02/17 11:25:22;;;;;;;1.60;1.50;;;18.90;99.90;;;;;;5123564;27;20806;-70
2023/02/17 11:27:57;;;;;;;1.40;1.20;;;18.60;99.90;;;;;;5137809;27;20440;-69
2023/02/17 11:30:24;;;;;;;4.60;1.33;;;18.50;99.90;;;;;;5138869;27;20468;-69
2023/02/17 11:32:50;;;;;;;3.70;1.57;;;18.50;99.90;;;;;;5133542;27;20440;-70
2023/02/17 11:35:43;;;;;;;2.17;1.40;;;18.40;99.90;;;;;;5133439;27;20449;-70
2023/02/17 11:38:11;;;;;;;1.93;1.73;;;18.40;99.90;;;;;;5131600;27;20445;-69
2023/02/17 11:40:36;;;;;;;1.60;1.30;;;18.60;99.90;;;;;;5132114;27;20424;-69
2023/02/17 11:43:03;;;;;;;1.83;1.73;;;18.70;99.90;;;;;;5133249;27;20433;-70
2023/02/17 11:45:44;;;;;;;3.47;1.63;;;18.90;99.90;;;;;;5133189;27;20405;-70
2023/02/17 11:48:15;;;;;;;1.57;1.20;;;19.90;99.90;;;;;;5132950;27;20410;-70
2023/02/17 11:50:58;;;;;;;1.87;1.23;;;20.80;99.90;;;;;;5133253;27;20521;-70
2023/02/17 11:53:41;;;;;;;2.30;1.80;;;21.10;99.90;;;;;;5132715;27;20887;-70
2023/02/17 11:56:06;;;;;;;6.80;1.77;;;21.60;99.90;;;;;;5131511;27;20468;-70
2023/02/17 11:59:00;;;;;;;2.47;1.60;;;22.20;99.90;;;;;;5132679;27;20414;-70
2023/02/17 12:01:31;;;;;;;1.60;1.37;;;22.40;99.90;;;;;;5133022;27;20387;-70
2023/02/17 12:04:20;;;;;;;2.00;1.80;;;22.20;99.90;;;;;;5130852;27;20445;-70
2023/02/17 12:06:59;;;;;;;2.20;1.40;;;21.90;99.90;;;;;;5112562;28;20398;-70
2023/02/17 12:09:40;;;;;;;5.00;1.80;;;21.80;99.90;;;;;;5112567;28;20419;-70
2023/02/17 12:12:15;;;;;;;3.53;1.57;;;22.00;99.90;;;;;;5112369;28;20410;-70
2023/02/17 12:14:56;;;;;;;2.70;1.40;;;22.10;99.90;;;;;;5112117;28;20453;-70
2023/02/17 12:17:48;;;;;;;2.30;1.67;;;22.90;98.90;;;;;;5113061;28;20428;-70
2023/02/17 12:20:33;;;;;;;1.77;1.30;;;23.30;96.90;;;;;;5132848;27;20393;-70
2023/02/17 12:23:23;;;;;;;12.30;3.33;;;23.80;95.10;;;;;;5132855;27;20401;-71
2023/02/17 12:26:11;;;;;;;3.40;1.60;;;24.40;93.40;;;;;;5132785;27;20748;-70
2023/02/17 12:29:05;;;;;;;2.30;2.10;;;24.10;90.50;;;;;;5132366;28;20981;-71
2023/02/17 12:31:39;;;;;;;3.30;1.73;;;24.20;90.00;;;;;;5132797;27;20406;-70
2023/02/17 12:34:35;;;;;;;6.43;1.93;;;24.20;88.20;;;;;;5132615;27;20396;-71
2023/02/17 12:37:04;;;;;;;7.47;1.53;;;24.40;86.40;;;;;;5133891;27;20392;-70
2023/02/17 12:39:37;;;;;;;2.97;2.00;;;24.40;85.10;;;;;;5143965;27;20507;-70
2023/02/17 12:42:12;;;;;;;6.03;1.73;;;23.30;84.70;;;;;;5140610;27;20410;-70
2023/02/17 12:44:46;;;;;;;6.30;1.77;;;23.00;89.10;;;;;;5136818;27;20974;-70
2023/02/17 12:47:24;;;;;;;7.70;1.33;;;23.60;88.90;;;;;;5134921;27;20492;-70
2023/02/17 12:50:26;;;;;;;5.50;3.03;;;24.60;86.40;;;;;;5136693;27;20400;-70
2023/02/17 12:52:56;;;;;;;6.50;2.03;;;26.00;80.40;;;;;;5136541;27;20405;-70
2023/02/17 12:55:27;;;;;;;1.60;1.50;;;26.00;76.00;;;;;;5136562;27;20888;-71
2023/02/17 12:58:02;;;;;;;5.93;1.83;;;26.80;74.30;;;;;;5134852;27;20425;-71
2023/02/17 13:00:37;;;;;;;1.80;1.50;;;27.50;69.20;;;;;;5136573;27;20458;-71
2023/02/17 13:03:03;;;;;;;2.07;1.70;;;27.10;68.90;;;;;;5136367;27;20833;-71
2023/02/17 13:06:02;;;;;;;12.87;2.17;;;27.80;67.30;;;;;;5122341;27;20416;-71